sensor_id;sensor_type;location;lat;lon;timestamp;P1;durP1;ratioP1;P2;durP2;ratioP2
20557;SDS011;10437;48.156;11.530;2023-04-25T00:02:24;2.37;;;1.50;;
20557;SDS011;10437;48.156;11.530;2023-04-25T00:04:53;3.73;;;1.50;;
20557;SDS011;10437;48.156;11.530;2023-04-25T00:07:24;2.37;;;1.40;;
20557;SDS011;10437;48.156;11.530;2023-04-25T00:09:51;1.98;;;1.40;;
20557;SDS011;10437;48.156;11.530;2023-04-25T00:12:18;3.20;;;1.50;;
20557;SDS011;10437;48.156;11.530;2023-04-25T00:14:46;2.13;;;1.33;;
20557;SDS011;10437;48.156;11.530;2023-04-25T00:17:14;2.33;;;1.40;;
20557;SDS011;10437;48.156;11.530;2023-04-25T00:19:42;3.47;;;1.43;;
20557;SDS011;10437;48.156;11.530;2023-04-25T00:22:11;2.85;;;1.45;;
20557;SDS011;10437;48.156;11.530;2023-04-25T00:24:39;2.17;;;1.40;;
20557;SDS011;10437;48.156;11.530;2023-04-25T00:27:06;2.93;;;1.60;;
20557;SDS011;10437;48.156;11.530;2023-04-25T00:29:34;4.40;;;1.42;;
20557;SDS011;10437;48.156;11.530;2023-04-25T00:32:01;2.10;;;1.33;;
20557;SDS011;10437;48.156;11.530;2023-04-25T00:34:28;3.77;;;1.40;;
20557;SDS011;10437;48.156;11.530;2023-04-25T00:36:55;4.05;;;1.35;;
20557;SDS011;10437;48.156;11.530;2023-04-25T00:39:22;4.05;;;1.30;;
20557;SDS011;10437;48.156;11.530;2023-04-25T00:41:51;2.80;;;1.25;;
20557;SDS011;10437;48.156;11.530;2023-04-25T00:44:20;1.77;;;1.30;;
20557;SDS011;10437;48.156;11.530;2023-04-25T00:46:47;3.83;;;1.70;;
20557;SDS011;10437;48.156;11.530;2023-04-25T00:49:15;5.27;;;1.33;;
20557;SDS011;10437;48.156;11.530;2023-04-25T00:51:42;5.93;;;1.77;;
20557;SDS011;10437;48.156;11.530;2023-04-25T00:54:10;2.83;;;1.77;;
20557;SDS011;10437;48.156;11.530;2023-04-25T00:56:38;2.43;;;1.50;;
20557;SDS011;10437;48.156;11.530;2023-04-25T00:59:07;2.95;;;1.40;;
20557;SDS011;10437;48.156;11.530;2023-04-25T01:01:35;4.27;;;1.57;;
20557;SDS011;10437;48.156;11.530;2023-04-25T01:04:03;2.40;;;1.33;;
20557;SDS011;10437;48.156;11.530;2023-04-25T01:06:30;2.00;;;1.40;;
20557;SDS011;10437;48.156;11.530;2023-04-25T01:08:58;3.57;;;1.37;;
20557;SDS011;10437;48.156;11.530;2023-04-25T01:11:25;2.13;;;1.30;;
20557;SDS011;10437;48.156;11.530;2023-04-25T01:13:52;4.03;;;1.70;;
20557;SDS011;10437;48.156;11.530;2023-04-25T01:16:21;2.67;;;1.47;;
20557;SDS011;10437;48.156;11.530;2023-04-25T01:18:49;2.70;;;1.53;;
20557;SDS011;10437;48.156;11.530;2023-04-25T01:21:18;3.87;;;1.20;;
20557;SDS011;10437;48.156;11.530;2023-04-25T01:23:45;2.43;;;1.53;;
20557;SDS011;10437;48.156;11.530;2023-04-25T01:26:13;3.50;;;1.40;;
20557;SDS011;10437;48.156;11.530;2023-04-25T01:28:40;3.13;;;1.43;;
20557;SDS011;10437;48.156;11.530;2023-04-25T01:31:07;2.20;;;1.33;;
20557;SDS011;10437;48.156;11.530;2023-04-25T01:33:35;3.63;;;1.50;;
20557;SDS011;10437;48.156;11.530;2023-04-25T01:36:02;2.37;;;1.60;;
20557;SDS011;10437;48.156;11.530;2023-04-25T01:38:31;2.40;;;1.40;;
20557;SDS011;10437;48.156;11.530;2023-04-25T01:40:58;2.30;;;1.50;;
20557;SDS011;10437;48.156;11.530;2023-04-25T01:43:25;3.13;;;1.30;;
20557;SDS011;10437;48.156;11.530;2023-04-25T01:45:53;3.97;;;1.60;;
20557;SDS011;10437;48.156;11.530;2023-04-25T01:48:20;2.57;;;1.47;;
20557;SDS011;10437;48.156;11.530;2023-04-25T01:50:47;4.50;;;1.93;;
20557;SDS011;10437;48.156;11.530;2023-04-25T01:53:15;4.90;;;1.57;;
20557;SDS011;10437;48.156;11.530;2023-04-25T01:55:43;2.90;;;1.30;;
20557;SDS011;10437;48.156;11.530;2023-04-25T01:58:10;2.47;;;1.57;;
20557;SDS011;10437;48.156;11.530;2023-04-25T02:00:38;2.00;;;1.50;;
20557;SDS011;10437;48.156;11.530;2023-04-25T02:03:06;2.77;;;1.70;;
20557;SDS011;10437;48.156;11.530;2023-04-25T02:05:36;3.33;;;1.50;;
20557;SDS011;10437;48.156;11.530;2023-04-25T02:08:04;2.35;;;1.52;;
20557;SDS011;10437;48.156;11.530;2023-04-25T02:10:32;3.73;;;1.70;;
20557;SDS011;10437;48.156;11.530;2023-04-25T02:13:00;3.73;;;1.80;;
20557;SDS011;10437;48.156;11.530;2023-04-25T02:15:27;3.73;;;1.53;;
20557;SDS011;10437;48.156;11.530;2023-04-25T02:17:54;2.07;;;1.40;;
20557;SDS011;10437;48.156;11.530;2023-04-25T02:20:23;3.47;;;1.30;;
20557;SDS011;10437;48.156;11.530;2023-04-25T02:22:50;5.23;;;1.60;;
20557;SDS011;10437;48.156;11.530;2023-04-25T02:25:18;2.33;;;1.50;;
20557;SDS011;10437;48.156;11.530;2023-04-25T02:27:45;5.67;;;1.53;;
20557;SDS011;10437;48.156;11.530;2023-04-25T02:30:14;5.13;;;1.70;;
20557;SDS011;10437;48.156;11.530;2023-04-25T02:32:41;4.03;;;1.50;;
20557;SDS011;10437;48.156;11.530;2023-04-25T02:35:08;2.93;;;1.37;;
20557;SDS011;10437;48.156;11.530;2023-04-25T02:37:36;2.87;;;1.40;;
20557;SDS011;10437;48.156;11.530;2023-04-25T02:40:05;6.13;;;2.10;;
20557;SDS011;10437;48.156;11.530;2023-04-25T02:42:33;3.70;;;1.80;;
20557;SDS011;10437;48.156;11.530;2023-04-25T02:45:00;3.47;;;1.63;;
20557;SDS011;10437;48.156;11.530;2023-04-25T02:47:28;3.13;;;1.60;;
20557;SDS011;10437;48.156;11.530;2023-04-25T02:49:55;2.77;;;1.57;;
20557;SDS011;10437;48.156;11.530;2023-04-25T02:52:22;3.70;;;1.67;;
20557;SDS011;10437;48.156;11.530;2023-04-25T02:54:50;3.53;;;1.40;;
20557;SDS011;10437;48.156;11.530;2023-04-25T02:57:17;3.17;;;1.83;;
20557;SDS011;10437;48.156;11.530;2023-04-25T02:59:44;4.87;;;1.57;;
20557;SDS011;10437;48.156;11.530;2023-04-25T03:02:11;1.73;;;1.30;;
20557;SDS011;10437;48.156;11.530;2023-04-25T03:04:40;2.53;;;1.70;;
20557;SDS011;10437;48.156;11.530;2023-04-25T03:07:07;4.30;;;1.77;;
20557;SDS011;10437;48.156;11.530;2023-04-25T03:09:34;6.10;;;1.43;;
20557;SDS011;10437;48.156;11.530;2023-04-25T03:12:01;2.70;;;1.63;;
20557;SDS011;10437;48.156;11.530;2023-04-25T03:14:28;3.63;;;1.83;;
20557;SDS011;10437;48.156;11.530;2023-04-25T03:16:55;4.60;;;1.55;;
20557;SDS011;10437;48.156;11.530;2023-04-25T03:19:22;2.50;;;1.50;;
20557;SDS011;10437;48.156;11.530;2023-04-25T03:21:51;3.00;;;1.70;;
20557;SDS011;10437;48.156;11.530;2023-04-25T03:24:18;1.97;;;1.40;;
20557;SDS011;10437;48.156;11.530;2023-04-25T03:26:45;3.17;;;1.23;;
20557;SDS011;10437;48.156;11.530;2023-04-25T03:29:12;3.90;;;1.70;;
20557;SDS011;10437;48.156;11.530;2023-04-25T03:31:39;9.07;;;3.67;;
20557;SDS011;10437;48.156;11.530;2023-04-25T03:34:07;3.60;;;1.70;;
20557;SDS011;10437;48.156;11.530;2023-04-25T03:36:34;2.07;;;1.30;;
20557;SDS011;10437;48.156;11.530;2023-04-25T03:39:02;6.20;;;1.50;;
20557;SDS011;10437;48.156;11.530;2023-04-25T03:41:29;3.23;;;1.50;;
20557;SDS011;10437;48.156;11.530;2023-04-25T03:43:56;2.53;;;1.30;;
20557;SDS011;10437;48.156;11.530;2023-04-25T03:46:23;2.30;;;1.10;;
20557;SDS011;10437;48.156;11.530;2023-04-25T03:48:50;3.60;;;1.90;;
20557;SDS011;10437;48.156;11.530;2023-04-25T03:51:17;3.40;;;1.23;;
20557;SDS011;10437;48.156;11.530;2023-04-25T03:53:45;3.73;;;1.07;;
20557;SDS011;10437;48.156;11.530;2023-04-25T03:56:13;2.97;;;1.38;;
20557;SDS011;10437;48.156;11.530;2023-04-25T03:58:40;3.53;;;1.20;;
20557;SDS011;10437;48.156;11.530;2023-04-25T04:01:07;2.13;;;1.20;;
20557;SDS011;10437;48.156;11.530;2023-04-25T04:03:34;2.20;;;1.20;;
20557;SDS011;10437;48.156;11.530;2023-04-25T04:06:01;3.07;;;1.17;;
20557;SDS011;10437;48.156;11.530;2023-04-25T04:08:29;2.47;;;1.20;;
20557;SDS011;10437;48.156;11.530;2023-04-25T04:10:56;4.93;;;2.40;;
20557;SDS011;10437;48.156;11.530;2023-04-25T04:13:25;4.00;;;1.10;;
20557;SDS011;10437;48.156;11.530;2023-04-25T04:15:52;2.13;;;1.00;;
20557;SDS011;10437;48.156;11.530;2023-04-25T04:18:19;1.87;;;1.20;;
20557;SDS011;10437;48.156;11.530;2023-04-25T04:20:46;2.10;;;1.20;;
20557;SDS011;10437;48.156;11.530;2023-04-25T04:23:13;4.33;;;1.10;;
20557;SDS011;10437;48.156;11.530;2023-04-25T04:25:40;3.13;;;1.17;;
20557;SDS011;10437;48.156;11.530;2023-04-25T04:28:08;3.00;;;1.23;;
20557;SDS011;10437;48.156;11.530;2023-04-25T04:30:37;4.20;;;1.20;;
20557;SDS011;10437;48.156;11.530;2023-04-25T04:33:04;2.33;;;1.20;;
20557;SDS011;10437;48.156;11.530;2023-04-25T04:35:32;3.37;;;1.10;;
20557;SDS011;10437;48.156;11.530;2023-04-25T04:37:59;1.40;;;0.87;;
20557;SDS011;10437;48.156;11.530;2023-04-25T04:40:26;3.40;;;1.03;;
20557;SDS011;10437;48.156;11.530;2023-04-25T04:42:55;3.37;;;1.07;;
20557;SDS011;10437;48.156;11.530;2023-04-25T04:45:22;3.10;;;1.30;;
20557;SDS011;10437;48.156;11.530;2023-04-25T04:47:51;2.87;;;1.20;;
20557;SDS011;10437;48.156;11.530;2023-04-25T04:50:20;2.60;;;1.30;;
20557;SDS011;10437;48.156;11.530;2023-04-25T04:52:47;2.67;;;1.20;;
20557;SDS011;10437;48.156;11.530;2023-04-25T04:55:14;2.00;;;1.20;;
20557;SDS011;10437;48.156;11.530;2023-04-25T04:57:41;2.33;;;1.43;;
20557;SDS011;10437;48.156;11.530;2023-04-25T05:00:09;1.88;;;1.30;;
20557;SDS011;10437;48.156;11.530;2023-04-25T05:02:37;2.57;;;1.20;;
20557;SDS011;10437;48.156;11.530;2023-04-25T05:05:06;2.63;;;1.10;;
20557;SDS011;10437;48.156;11.530;2023-04-25T05:07:33;2.80;;;1.40;;
20557;SDS011;10437;48.156;11.530;2023-04-25T05:10:01;3.97;;;1.60;;
20557;SDS011;10437;48.156;11.530;2023-04-25T05:12:28;4.20;;;1.40;;
20557;SDS011;10437;48.156;11.530;2023-04-25T05:14:55;3.77;;;1.30;;
20557;SDS011;10437;48.156;11.530;2023-04-25T05:17:22;5.87;;;1.70;;
20557;SDS011;10437;48.156;11.530;2023-04-25T05:19:49;3.20;;;1.40;;
20557;SDS011;10437;48.156;11.530;2023-04-25T05:22:18;2.90;;;1.60;;
20557;SDS011;10437;48.156;11.530;2023-04-25T05:24:45;2.50;;;1.37;;
20557;SDS011;10437;48.156;11.530;2023-04-25T05:27:13;2.73;;;1.50;;
20557;SDS011;10437;48.156;11.530;2023-04-25T05:29:40;3.47;;;1.60;;
20557;SDS011;10437;48.156;11.530;2023-04-25T05:32:07;2.53;;;1.30;;
20557;SDS011;10437;48.156;11.530;2023-04-25T05:34:34;7.87;;;1.60;;
20557;SDS011;10437;48.156;11.530;2023-04-25T05:37:02;4.23;;;1.70;;
20557;SDS011;10437;48.156;11.530;2023-04-25T05:39:31;2.70;;;1.37;;
20557;SDS011;10437;48.156;11.530;2023-04-25T05:41:57;2.30;;;1.40;;
20557;SDS011;10437;48.156;11.530;2023-04-25T05:44:26;2.63;;;1.47;;
20557;SDS011;10437;48.156;11.530;2023-04-25T05:46:53;2.67;;;1.50;;
20557;SDS011;10437;48.156;11.530;2023-04-25T05:49:20;2.80;;;1.50;;
20557;SDS011;10437;48.156;11.530;2023-04-25T05:51:47;5.47;;;1.70;;
20557;SDS011;10437;48.156;11.530;2023-04-25T05:54:15;4.00;;;1.87;;
20557;SDS011;10437;48.156;11.530;2023-04-25T05:56:43;2.80;;;1.43;;
20557;SDS011;10437;48.156;11.530;2023-04-25T05:59:10;2.33;;;1.53;;
20557;SDS011;10437;48.156;11.530;2023-04-25T06:01:37;6.10;;;1.67;;
20557;SDS011;10437;48.156;11.530;2023-04-25T06:04:05;2.93;;;1.60;;
20557;SDS011;10437;48.156;11.530;2023-04-25T06:06:32;3.73;;;1.60;;
20557;SDS011;10437;48.156;11.530;2023-04-25T06:08:59;3.23;;;1.40;;
20557;SDS011;10437;48.156;11.530;2023-04-25T06:11:26;3.73;;;1.80;;
20557;SDS011;10437;48.156;11.530;2023-04-25T06:13:55;1.87;;;1.50;;
20557;SDS011;10437;48.156;11.530;2023-04-25T06:16:21;4.60;;;1.80;;
20557;SDS011;10437;48.156;11.530;2023-04-25T06:18:50;3.00;;;1.30;;
20557;SDS011;10437;48.156;11.530;2023-04-25T06:21:17;2.93;;;1.60;;
20557;SDS011;10437;48.156;11.530;2023-04-25T06:23:45;4.20;;;1.50;;
20557;SDS011;10437;48.156;11.530;2023-04-25T06:26:12;7.57;;;1.60;;
20557;SDS011;10437;48.156;11.530;2023-04-25T06:28:39;2.03;;;1.53;;
20557;SDS011;10437;48.156;11.530;2023-04-25T06:31:07;3.60;;;1.57;;
20557;SDS011;10437;48.156;11.530;2023-04-25T06:33:34;3.83;;;1.77;;
20557;SDS011;10437;48.156;11.530;2023-04-25T06:36:01;3.33;;;1.90;;
20557;SDS011;10437;48.156;11.530;2023-04-25T06:38:28;4.60;;;1.60;;
20557;SDS011;10437;48.156;11.530;2023-04-25T06:40:56;4.10;;;2.00;;
20557;SDS011;10437;48.156;11.530;2023-04-25T06:43:23;3.33;;;1.67;;
20557;SDS011;10437;48.156;11.530;2023-04-25T06:45:50;6.97;;;2.43;;
20557;SDS011;10437;48.156;11.530;2023-04-25T06:48:19;5.23;;;2.20;;
20557;SDS011;10437;48.156;11.530;2023-04-25T06:50:45;5.40;;;2.17;;
20557;SDS011;10437;48.156;11.530;2023-04-25T06:53:13;3.23;;;1.90;;
20557;SDS011;10437;48.156;11.530;2023-04-25T06:55:40;8.60;;;4.47;;
20557;SDS011;10437;48.156;11.530;2023-04-25T06:58:07;4.17;;;2.30;;
20557;SDS011;10437;48.156;11.530;2023-04-25T07:00:34;5.20;;;2.43;;
20557;SDS011;10437;48.156;11.530;2023-04-25T07:03:01;5.03;;;2.30;;
20557;SDS011;10437;48.156;11.530;2023-04-25T07:05:29;3.00;;;2.10;;
20557;SDS011;10437;48.156;11.530;2023-04-25T07:07:57;7.27;;;2.40;;
20557;SDS011;10437;48.156;11.530;2023-04-25T07:10:24;5.90;;;2.20;;
20557;SDS011;10437;48.156;11.530;2023-04-25T07:12:51;5.90;;;2.07;;
20557;SDS011;10437;48.156;11.530;2023-04-25T07:15:18;3.40;;;1.93;;
20557;SDS011;10437;48.156;11.530;2023-04-25T07:17:45;4.97;;;1.93;;
20557;SDS011;10437;48.156;11.530;2023-04-25T07:20:12;4.37;;;2.03;;
20557;SDS011;10437;48.156;11.530;2023-04-25T07:22:41;4.50;;;2.17;;
20557;SDS011;10437;48.156;11.530;2023-04-25T07:25:09;4.17;;;2.10;;
20557;SDS011;10437;48.156;11.530;2023-04-25T07:27:36;2.90;;;1.73;;
20557;SDS011;10437;48.156;11.530;2023-04-25T07:30:04;4.03;;;2.10;;
20557;SDS011;10437;48.156;11.530;2023-04-25T07:32:32;4.63;;;1.70;;
20557;SDS011;10437;48.156;11.530;2023-04-25T07:34:59;3.70;;;1.90;;
20557;SDS011;10437;48.156;11.530;2023-04-25T07:37:26;2.70;;;1.43;;
20557;SDS011;10437;48.156;11.530;2023-04-25T07:39:55;6.43;;;2.10;;
20557;SDS011;10437;48.156;11.530;2023-04-25T07:42:22;3.07;;;1.70;;
20557;SDS011;10437;48.156;11.530;2023-04-25T07:44:49;7.32;;;1.73;;
20557;SDS011;10437;48.156;11.530;2023-04-25T07:47:16;4.53;;;1.90;;
20557;SDS011;10437;48.156;11.530;2023-04-25T07:49:45;4.60;;;1.73;;
20557;SDS011;10437;48.156;11.530;2023-04-25T07:52:12;7.70;;;1.70;;
20557;SDS011;10437;48.156;11.530;2023-04-25T07:54:39;5.03;;;1.85;;
20557;SDS011;10437;48.156;11.530;2023-04-25T07:57:08;3.80;;;1.60;;
20557;SDS011;10437;48.156;11.530;2023-04-25T07:59:34;5.13;;;1.77;;
20557;SDS011;10437;48.156;11.530;2023-04-25T08:02:02;2.95;;;1.90;;
20557;SDS011;10437;48.156;11.530;2023-04-25T08:04:29;5.32;;;2.00;;
20557;SDS011;10437;48.156;11.530;2023-04-25T08:06:56;7.82;;;1.75;;
20557;SDS011;10437;48.156;11.530;2023-04-25T08:09:23;4.35;;;2.03;;
20557;SDS011;10437;48.156;11.530;2023-04-25T08:11:50;3.08;;;1.63;;
20557;SDS011;10437;48.156;11.530;2023-04-25T08:14:19;6.38;;;1.95;;
20557;SDS011;10437;48.156;11.530;2023-04-25T08:16:46;3.22;;;1.60;;
20557;SDS011;10437;48.156;11.530;2023-04-25T08:19:13;3.63;;;1.80;;
20557;SDS011;10437;48.156;11.530;2023-04-25T08:21:40;3.03;;;1.60;;
20557;SDS011;10437;48.156;11.530;2023-04-25T08:24:07;4.60;;;2.00;;
20557;SDS011;10437;48.156;11.530;2023-04-25T08:26:34;5.90;;;1.63;;
20557;SDS011;10437;48.156;11.530;2023-04-25T08:29:02;5.43;;;1.90;;
20557;SDS011;10437;48.156;11.530;2023-04-25T08:31:30;2.13;;;1.40;;
20557;SDS011;10437;48.156;11.530;2023-04-25T08:33:57;3.25;;;1.63;;
20557;SDS011;10437;48.156;11.530;2023-04-25T08:36:24;4.68;;;1.90;;
20557;SDS011;10437;48.156;11.530;2023-04-25T08:38:53;3.63;;;1.52;;
20557;SDS011;10437;48.156;11.530;2023-04-25T08:41:20;5.28;;;1.70;;
20557;SDS011;10437;48.156;11.530;2023-04-25T08:43:48;4.25;;;1.42;;
20557;SDS011;10437;48.156;11.530;2023-04-25T08:46:15;2.47;;;1.40;;
20557;SDS011;10437;48.156;11.530;2023-04-25T08:48:45;2.67;;;1.00;;
20557;SDS011;10437;48.156;11.530;2023-04-25T08:51:14;2.65;;;1.40;;
20557;SDS011;10437;48.156;11.530;2023-04-25T08:53:44;2.25;;;1.30;;
20557;SDS011;10437;48.156;11.530;2023-04-25T08:56:14;1.65;;;1.10;;
20557;SDS011;10437;48.156;11.530;2023-04-25T08:58:45;3.65;;;1.40;;
20557;SDS011;10437;48.156;11.530;2023-04-25T09:01:14;2.03;;;1.20;;
20557;SDS011;10437;48.156;11.530;2023-04-25T09:03:41;1.30;;;1.17;;
20557;SDS011;10437;48.156;11.530;2023-04-25T09:06:10;2.97;;;1.02;;
20557;SDS011;10437;48.156;11.530;2023-04-25T09:08:37;2.40;;;1.30;;
20557;SDS011;10437;48.156;11.530;2023-04-25T09:11:06;1.95;;;0.95;;
20557;SDS011;10437;48.156;11.530;2023-04-25T09:13:32;1.40;;;0.95;;
20557;SDS011;10437;48.156;11.530;2023-04-25T09:16:00;3.30;;;1.02;;
20557;SDS011;10437;48.156;11.530;2023-04-25T09:18:27;1.48;;;0.82;;
20557;SDS011;10437;48.156;11.530;2023-04-25T09:20:56;4.03;;;1.30;;
20557;SDS011;10437;48.156;11.530;2023-04-25T09:23:25;1.63;;;0.85;;
20557;SDS011;10437;48.156;11.530;2023-04-25T09:25:52;2.95;;;1.10;;
20557;SDS011;10437;48.156;11.530;2023-04-25T09:28:22;3.10;;;1.08;;
20557;SDS011;10437;48.156;11.530;2023-04-25T09:30:53;7.45;;;1.17;;
20557;SDS011;10437;48.156;11.530;2023-04-25T09:33:23;1.50;;;1.20;;
20557;SDS011;10437;48.156;11.530;2023-04-25T09:35:54;2.88;;;0.90;;
20557;SDS011;10437;48.156;11.530;2023-04-25T09:38:28;4.38;;;1.17;;
20557;SDS011;10437;48.156;11.530;2023-04-25T09:40:56;2.28;;;1.20;;
20557;SDS011;10437;48.156;11.530;2023-04-25T09:43:24;4.03;;;1.30;;
20557;SDS011;10437;48.156;11.530;2023-04-25T09:45:53;3.55;;;1.00;;
20557;SDS011;10437;48.156;11.530;2023-04-25T09:48:24;2.42;;;1.10;;
20557;SDS011;10437;48.156;11.530;2023-04-25T09:51:03;1.40;;;0.90;;
20557;SDS011;10437;48.156;11.530;2023-04-25T09:53:33;2.83;;;1.30;;
20557;SDS011;10437;48.156;11.530;2023-04-25T09:56:00;1.95;;;1.33;;
20557;SDS011;10437;48.156;11.530;2023-04-25T09:58:31;2.58;;;1.23;;
20557;SDS011;10437;48.156;11.530;2023-04-25T10:00:59;4.38;;;1.10;;
20557;SDS011;10437;48.156;11.530;2023-04-25T10:03:27;4.35;;;1.08;;
20557;SDS011;10437;48.156;11.530;2023-04-25T10:05:57;2.85;;;1.02;;
20557;SDS011;10437;48.156;11.530;2023-04-25T10:08:26;2.35;;;1.38;;
20557;SDS011;10437;48.156;11.530;2023-04-25T10:10:58;2.15;;;1.40;;
20557;SDS011;10437;48.156;11.530;2023-04-25T10:13:26;2.35;;;1.10;;
20557;SDS011;10437;48.156;11.530;2023-04-25T10:15:54;1.13;;;1.02;;
20557;SDS011;10437;48.156;11.530;2023-04-25T10:18:22;3.28;;;1.30;;
20557;SDS011;10437;48.156;11.530;2023-04-25T10:20:50;2.97;;;1.15;;
20557;SDS011;10437;48.156;11.530;2023-04-25T10:23:18;1.42;;;0.85;;
20557;SDS011;10437;48.156;11.530;2023-04-25T10:25:45;3.15;;;1.10;;
20557;SDS011;10437;48.156;11.530;2023-04-25T10:28:13;3.08;;;0.93;;
20557;SDS011;10437;48.156;11.530;2023-04-25T10:33:34;2.15;;;1.20;;
20557;SDS011;10437;48.156;11.530;2023-04-25T10:36:08;4.60;;;1.23;;
20557;SDS011;10437;48.156;11.530;2023-04-25T10:38:36;2.33;;;1.00;;
20557;SDS011;10437;48.156;11.530;2023-04-25T10:41:04;2.03;;;0.75;;
20557;SDS011;10437;48.156;11.530;2023-04-25T10:43:36;1.95;;;0.75;;
20557;SDS011;10437;48.156;11.530;2023-04-25T10:46:13;2.17;;;0.60;;
20557;SDS011;10437;48.156;11.530;2023-04-25T10:48:45;0.82;;;0.65;;
20557;SDS011;10437;48.156;11.530;2023-04-25T10:51:17;1.25;;;0.80;;
20557;SDS011;10437;48.156;11.530;2023-04-25T10:53:46;1.63;;;0.80;;
20557;SDS011;10437;48.156;11.530;2023-04-25T10:56:17;1.58;;;0.80;;
20557;SDS011;10437;48.156;11.530;2023-04-25T10:58:45;1.88;;;0.93;;
20557;SDS011;10437;48.156;11.530;2023-04-25T11:01:13;3.90;;;0.90;;
20557;SDS011;10437;48.156;11.530;2023-04-25T11:03:40;2.72;;;1.25;;
20557;SDS011;10437;48.156;11.530;2023-04-25T11:06:11;2.55;;;0.85;;
20557;SDS011;10437;48.156;11.530;2023-04-25T11:08:47;2.92;;;0.82;;
20557;SDS011;10437;48.156;11.530;2023-04-25T11:11:16;1.70;;;0.75;;
20557;SDS011;10437;48.156;11.530;2023-04-25T11:13:43;1.80;;;1.00;;
20557;SDS011;10437;48.156;11.530;2023-04-25T11:16:11;0.75;;;0.60;;
20557;SDS011;10437;48.156;11.530;2023-04-25T11:18:40;1.60;;;0.77;;
20557;SDS011;10437;48.156;11.530;2023-04-25T11:21:07;2.33;;;0.90;;
20557;SDS011;10437;48.156;11.530;2023-04-25T11:23:34;2.75;;;0.68;;
20557;SDS011;10437;48.156;11.530;2023-04-25T11:26:01;2.83;;;0.90;;
20557;SDS011;10437;48.156;11.530;2023-04-25T11:28:29;1.25;;;0.80;;
20557;SDS011;10437;48.156;11.530;2023-04-25T11:30:56;1.13;;;0.75;;
20557;SDS011;10437;48.156;11.530;2023-04-25T11:33:25;5.40;;;1.00;;
20557;SDS011;10437;48.156;11.530;2023-04-25T11:35:53;1.63;;;0.70;;
20557;SDS011;10437;48.156;11.530;2023-04-25T11:38:21;0.93;;;0.70;;
20557;SDS011;10437;48.156;11.530;2023-04-25T11:40:51;2.15;;;0.90;;
20557;SDS011;10437;48.156;11.530;2023-04-25T11:43:19;2.75;;;1.00;;
20557;SDS011;10437;48.156;11.530;2023-04-25T11:45:47;2.78;;;1.02;;
20557;SDS011;10437;48.156;11.530;2023-04-25T11:48:15;2.88;;;1.30;;
20557;SDS011;10437;48.156;11.530;2023-04-25T11:50:44;3.50;;;1.27;;
20557;SDS011;10437;48.156;11.530;2023-04-25T11:53:11;11.82;;;1.50;;
20557;SDS011;10437;48.156;11.530;2023-04-25T11:55:38;11.25;;;1.85;;
20557;SDS011;10437;48.156;11.530;2023-04-25T11:58:06;17.65;;;2.55;;
20557;SDS011;10437;48.156;11.530;2023-04-25T12:00:33;1.20;;;0.55;;
20557;SDS011;10437;48.156;11.530;2023-04-25T12:03:01;1.10;;;0.70;;
20557;SDS011;10437;48.156;11.530;2023-04-25T12:05:29;3.22;;;0.80;;
20557;SDS011;10437;48.156;11.530;2023-04-25T12:07:59;0.73;;;0.60;;
20557;SDS011;10437;48.156;11.530;2023-04-25T12:10:37;0.70;;;0.50;;
20557;SDS011;10437;48.156;11.530;2023-04-25T12:13:17;1.10;;;0.60;;
20557;SDS011;10437;48.156;11.530;2023-04-25T12:15:45;1.20;;;0.75;;
20557;SDS011;10437;48.156;11.530;2023-04-25T12:18:12;2.17;;;0.63;;
20557;SDS011;10437;48.156;11.530;2023-04-25T12:20:41;1.27;;;0.60;;
20557;SDS011;10437;48.156;11.530;2023-04-25T12:23:09;1.98;;;0.50;;
20557;SDS011;10437;48.156;11.530;2023-04-25T12:25:38;5.07;;;0.85;;
20557;SDS011;10437;48.156;11.530;2023-04-25T12:28:09;1.25;;;0.65;;
20557;SDS011;10437;48.156;11.530;2023-04-25T12:30:51;1.30;;;0.73;;
20557;SDS011;10437;48.156;11.530;2023-04-25T12:33:20;1.65;;;0.70;;
20557;SDS011;10437;48.156;11.530;2023-04-25T12:35:47;1.00;;;0.70;;
20557;SDS011;10437;48.156;11.530;2023-04-25T12:38:21;1.00;;;0.70;;
20557;SDS011;10437;48.156;11.530;2023-04-25T12:40:49;1.17;;;0.70;;
20557;SDS011;10437;48.156;11.530;2023-04-25T12:43:16;1.63;;;0.63;;
20557;SDS011;10437;48.156;11.530;2023-04-25T12:45:43;1.63;;;0.70;;
20557;SDS011;10437;48.156;11.530;2023-04-25T12:48:10;1.43;;;0.70;;
20557;SDS011;10437;48.156;11.530;2023-04-25T12:50:37;1.63;;;0.77;;
20557;SDS011;10437;48.156;11.530;2023-04-25T12:53:06;0.90;;;0.70;;
20557;SDS011;10437;48.156;11.530;2023-04-25T12:55:34;1.17;;;0.70;;
20557;SDS011;10437;48.156;11.530;2023-04-25T12:58:01;0.60;;;0.60;;
20557;SDS011;10437;48.156;11.530;2023-04-25T13:00:29;1.23;;;0.90;;
20557;SDS011;10437;48.156;11.530;2023-04-25T13:02:56;1.50;;;0.70;;
20557;SDS011;10437;48.156;11.530;2023-04-25T13:05:24;1.50;;;0.90;;
20557;SDS011;10437;48.156;11.530;2023-04-25T13:07:51;2.03;;;0.80;;
20557;SDS011;10437;48.156;11.530;2023-04-25T13:10:18;1.15;;;1.00;;
20557;SDS011;10437;48.156;11.530;2023-04-25T13:12:47;2.40;;;0.90;;
20557;SDS011;10437;48.156;11.530;2023-04-25T13:15:14;0.93;;;0.70;;
20557;SDS011;10437;48.156;11.530;2023-04-25T13:17:41;0.90;;;0.73;;
20557;SDS011;10437;48.156;11.530;2023-04-25T13:20:09;1.73;;;0.77;;
20557;SDS011;10437;48.156;11.530;2023-04-25T13:22:36;2.17;;;0.77;;
20557;SDS011;10437;48.156;11.530;2023-04-25T13:25:04;1.20;;;0.55;;
20557;SDS011;10437;48.156;11.530;2023-04-25T13:27:32;1.43;;;1.13;;
20557;SDS011;10437;48.156;11.530;2023-04-25T13:30:03;1.97;;;0.90;;
20557;SDS011;10437;48.156;11.530;2023-04-25T13:32:32;1.33;;;0.90;;
20557;SDS011;10437;48.156;11.530;2023-04-25T13:35:01;1.35;;;0.90;;
20557;SDS011;10437;48.156;11.530;2023-04-25T13:37:28;1.17;;;0.57;;
20557;SDS011;10437;48.156;11.530;2023-04-25T13:39:57;0.83;;;0.67;;
20557;SDS011;10437;48.156;11.530;2023-04-25T13:42:24;1.55;;;0.60;;
20557;SDS011;10437;48.156;11.530;2023-04-25T13:44:51;0.87;;;0.63;;
20557;SDS011;10437;48.156;11.530;2023-04-25T13:47:20;1.83;;;0.60;;
20557;SDS011;10437;48.156;11.530;2023-04-25T13:49:47;1.53;;;0.60;;
20557;SDS011;10437;48.156;11.530;2023-04-25T13:52:14;0.90;;;0.60;;
20557;SDS011;10437;48.156;11.530;2023-04-25T13:54:41;2.47;;;0.60;;
20557;SDS011;10437;48.156;11.530;2023-04-25T13:57:08;1.13;;;0.68;;
20557;SDS011;10437;48.156;11.530;2023-04-25T13:59:36;2.10;;;0.90;;
20557;SDS011;10437;48.156;11.530;2023-04-25T14:02:03;1.17;;;0.70;;
20557;SDS011;10437;48.156;11.530;2023-04-25T14:04:31;1.63;;;0.63;;
20557;SDS011;10437;48.156;11.530;2023-04-25T14:06:58;1.63;;;0.80;;
20557;SDS011;10437;48.156;11.530;2023-04-25T14:09:25;1.00;;;0.87;;
20557;SDS011;10437;48.156;11.530;2023-04-25T14:11:53;1.10;;;0.90;;
20557;SDS011;10437;48.156;11.530;2023-04-25T14:14:20;1.95;;;0.80;;
20557;SDS011;10437;48.156;11.530;2023-04-25T14:16:47;1.63;;;1.00;;
20557;SDS011;10437;48.156;11.530;2023-04-25T14:19:15;3.93;;;1.33;;
20557;SDS011;10437;48.156;11.530;2023-04-25T14:21:43;3.10;;;1.10;;
20557;SDS011;10437;48.156;11.530;2023-04-25T14:24:11;1.85;;;1.00;;
20557;SDS011;10437;48.156;11.530;2023-04-25T14:26:38;0.93;;;0.70;;
20557;SDS011;10437;48.156;11.530;2023-04-25T14:29:07;0.68;;;0.65;;
20557;SDS011;10437;48.156;11.530;2023-04-25T14:31:36;1.02;;;0.65;;
20557;SDS011;10437;48.156;11.530;2023-04-25T14:34:03;1.45;;;0.70;;
20557;SDS011;10437;48.156;11.530;2023-04-25T14:36:31;0.60;;;0.60;;
20557;SDS011;10437;48.156;11.530;2023-04-25T14:39:02;0.53;;;0.50;;
20557;SDS011;10437;48.156;11.530;2023-04-25T14:41:30;1.53;;;0.60;;